createdAt,value
2019-05-17T01:31:09.416Z,76.93
2019-05-17T01:33:42.480Z,77.03
2019-05-17T01:36:17.372Z,76.87
2019-05-17T01:38:51.450Z,77.03
2019-05-17T01:41:26.687Z,76.81
2019-05-17T01:44:00.693Z,77.07
2019-05-17T01:46:36.863Z,77.19
2019-05-17T01:49:10.261Z,77.19
2019-05-17T01:51:46.563Z,77.16
2019-05-17T01:54:20.034Z,77.20
2019-05-17T01:56:53.923Z,77.00
2019-05-17T01:59:27.755Z,77.07
2019-05-17T02:02:03.216Z,76.96
2019-05-17T02:04:38.310Z,77.08
2019-05-17T02:07:12.197Z,77.19
2019-05-17T02:09:47.741Z,77.14
2019-05-17T02:12:21.746Z,77.01
2019-05-17T02:14:57.578Z,77.02
2019-05-17T02:17:31.324Z,77.08
2019-05-17T02:20:07.666Z,77.05
2019-05-17T02:22:41.564Z,77.07
2019-05-17T02:25:17.341Z,77.70
2019-05-17T02:27:52.331Z,77.16
2019-05-17T02:30:26.462Z,77.23
2019-05-17T02:33:03.776Z,77.23
2019-05-17T02:35:36.023Z,77.36
2019-05-17T02:38:12.997Z,77.37
2019-05-17T02:40:45.505Z,77.13
2019-05-17T02:43:19.309Z,77.17
2019-05-17T02:45:53.198Z,77.25
2019-05-17T02:48:27.016Z,77.13
2019-05-17T02:51:03.560Z,77.69
2019-05-17T02:53:36.447Z,77.41
2019-05-17T02:56:13.368Z,77.26
2019-05-17T02:58:45.797Z,77.25
2019-05-17T03:01:19.734Z,77.25
2019-05-17T03:03:53.676Z,77.41
2019-05-17T03:06:27.479Z,77.39
2019-05-17T03:09:03.546Z,77.40
2019-05-17T03:11:37.013Z,77.40
2019-05-17T03:14:12.840Z,77.31
2019-05-17T03:16:46.473Z,77.37
2019-05-17T03:19:23.354Z,77.37
2019-05-17T03:21:56.309Z,77.43
2019-05-17T03:24:33.054Z,77.41
2019-05-17T03:27:05.992Z,77.40
2019-05-17T03:29:42.342Z,77.37
2019-05-17T03:32:17.427Z,77.33
2019-05-17T03:34:56.080Z,77.45
2019-05-17T03:37:32.557Z,77.42
2019-05-17T03:40:04.721Z,77.48
2019-05-17T03:42:37.540Z,77.38
2019-05-17T03:45:13.692Z,77.36
2019-05-17T03:47:47.735Z,77.41
2019-05-17T03:50:22.722Z,77.32
2019-05-17T03:52:57.079Z,77.49
2019-05-17T03:55:33.318Z,77.61
2019-05-17T03:58:04.921Z,77.50
2019-05-17T04:00:38.714Z,77.60
2019-05-17T04:03:13.757Z,77.60
2019-05-17T04:05:47.850Z,77.53
2019-05-17T04:08:22.915Z,77.61
2019-05-17T04:10:56.985Z,77.68
2019-05-17T04:13:33.649Z,77.52
2019-05-17T04:16:09.226Z,77.67
2019-05-17T04:18:43.748Z,77.87
2019-05-17T04:21:17.979Z,77.76
2019-05-17T04:23:53.846Z,77.76
2019-05-17T04:26:25.766Z,77.79
2019-05-17T04:28:59.590Z,77.63
2019-05-17T04:31:34.824Z,77.81
2019-05-17T04:34:09.172Z,77.84
2019-05-17T04:36:43.421Z,77.61
2019-05-17T04:39:17.624Z,77.72
2019-05-17T04:41:54.817Z,77.76
2019-05-17T04:44:27.168Z,77.71
2019-05-17T04:47:03.056Z,77.68
2019-05-17T04:49:36.583Z,77.89
2019-05-17T04:52:13.522Z,77.82
2019-05-17T04:54:46.104Z,77.74
2019-05-17T04:57:22.935Z,77.78
2019-05-17T04:59:55.599Z,77.96
2019-05-17T05:02:33.110Z,77.88
2019-05-17T05:05:06.773Z,77.92
2019-05-17T05:07:43.133Z,77.96
2019-05-17T05:10:16.565Z,77.80
2019-05-17T05:12:52.406Z,78.01
2019-05-17T05:15:43.277Z,77.85
2019-05-17T05:18:15.968Z,77.87
2019-05-17T05:20:52.452Z,77.77
2019-05-17T05:23:25.365Z,77.87
2019-05-17T05:25:59.198Z,77.91
2019-05-17T05:28:33.146Z,78.00
2019-05-17T05:31:07.083Z,77.95
2019-05-17T05:33:41.949Z,77.93
2019-05-17T05:36:15.958Z,77.86
2019-05-17T05:38:51.532Z,77.99
2019-05-17T05:41:25.527Z,77.97
2019-05-17T05:44:01.650Z,77.93
2019-05-17T05:46:35.027Z,77.94
2019-05-17T05:49:08.909Z,77.89
2019-05-17T05:51:42.739Z,77.93
2019-05-17T05:54:16.658Z,77.99
2019-05-17T05:56:52.442Z,78.03
2019-05-17T05:59:26.178Z,77.97
2019-05-17T06:02:01.783Z,77.98
2019-05-17T06:04:35.785Z,78.02
2019-05-17T06:07:08.826Z,77.97
2019-05-17T06:09:43.885Z,77.97
2019-05-17T06:12:23.655Z,77.99
2019-05-17T06:14:53.427Z,78.05
2019-05-17T06:17:27.334Z,78.01
2019-05-17T06:20:02.617Z,78.06
2019-05-17T06:22:36.912Z,78.04
2019-05-17T06:25:15.038Z,78.16
2019-05-17T06:27:46.749Z,78.17
2019-05-17T06:30:22.021Z,78.07
2019-05-17T06:32:55.684Z,78.14
2019-05-17T06:35:32.349Z,78.11
2019-05-17T06:38:05.453Z,78.17
2019-05-17T06:40:42.070Z,78.15
2019-05-17T06:43:15.850Z,78.39
2019-05-17T06:45:52.036Z,78.27
2019-05-17T06:48:25.398Z,78.25
2019-05-17T06:50:59.358Z,78.28
2019-05-17T06:53:33.556Z,78.37
2019-05-17T06:56:08.420Z,78.37
2019-05-17T06:58:42.377Z,78.27
2019-05-17T07:01:16.825Z,78.29
2019-05-17T07:03:50.941Z,78.28
2019-05-17T07:06:25.651Z,78.32
2019-05-17T07:09:00.935Z,78.31
2019-05-17T07:11:35.439Z,78.44
2019-05-17T07:14:09.911Z,78.30
2019-05-17T07:16:44.177Z,78.39
2019-05-17T07:19:19.776Z,78.29
2019-05-17T07:21:53.844Z,78.27
2019-05-17T07:24:27.294Z,78.41
2019-05-17T07:27:01.304Z,78.30
2019-05-17T07:29:35.014Z,78.36
2019-05-17T07:32:09.806Z,78.38
2019-05-17T07:34:44.397Z,78.47
2019-05-17T07:37:19.600Z,78.37
2019-05-17T07:40:01.157Z,78.42
2019-05-17T07:42:31.752Z,78.39
2019-05-17T07:45:10.145Z,78.41
2019-05-17T07:47:44.599Z,78.43
2019-05-17T07:50:20.173Z,78.51
2019-05-17T07:52:54.401Z,78.37
2019-05-17T07:55:30.315Z,78.41
2019-05-17T07:58:04.297Z,78.43
2019-05-17T08:00:39.959Z,78.42
2019-05-17T08:03:14.204Z,78.43
2019-05-17T08:05:47.733Z,78.44
2019-05-17T08:08:21.943Z,78.49
2019-05-17T08:10:56.135Z,78.55
2019-05-17T08:13:33.205Z,78.53
2019-05-17T08:16:06.421Z,78.51
2019-05-17T08:18:40.429Z,78.60
2019-05-17T08:21:13.578Z,78.65
2019-05-17T08:23:47.583Z,78.58
2019-05-17T08:26:20.711Z,78.71
2019-05-17T08:28:55.298Z,78.54
2019-05-17T08:31:29.621Z,78.58
2019-05-17T08:34:03.671Z,78.57
2019-05-17T08:36:40.542Z,78.70
2019-05-17T08:39:16.450Z,78.64
2019-05-17T08:41:54.142Z,78.66
2019-05-17T08:44:30.901Z,78.66
2019-05-17T08:47:10.187Z,78.62
2019-05-17T08:49:44.946Z,78.61
2019-05-17T08:52:20.195Z,78.63
2019-05-17T08:54:54.846Z,78.62
2019-05-17T08:57:30.289Z,78.62
2019-05-17T09:00:06.752Z,78.66
2019-05-17T09:02:41.262Z,78.65
2019-05-17T09:05:15.352Z,78.68
2019-05-17T09:07:49.306Z,78.68
2019-05-17T09:10:23.345Z,78.78
2019-05-17T09:12:59.549Z,78.70
2019-05-17T09:15:33.045Z,78.73
2019-05-17T09:18:06.381Z,78.84
2019-05-17T09:20:40.854Z,78.75
2019-05-17T09:23:14.793Z,78.80
2019-05-17T09:25:50.137Z,78.77
2019-05-17T09:28:24.225Z,78.72
2019-05-17T09:30:59.929Z,78.75
2019-05-17T09:33:33.996Z,78.72
2019-05-17T09:36:10.102Z,78.71
2019-05-17T09:38:43.964Z,78.80
2019-05-17T09:41:20.055Z,78.72
2019-05-17T09:43:54.184Z,78.80
2019-05-17T09:46:30.316Z,78.80
2019-05-17T09:49:05.797Z,78.78
2019-05-17T09:51:41.671Z,78.84
2019-05-17T09:54:17.009Z,78.84
2019-05-17T09:56:53.618Z,78.77
2019-05-17T09:59:30.172Z,78.91
2019-05-17T10:02:04.495Z,78.83
2019-05-17T10:04:39.534Z,78.82
2019-05-17T10:07:13.705Z,78.80
2019-05-17T10:09:46.900Z,78.94
2019-05-17T10:12:21.038Z,78.88
2019-05-17T10:14:54.181Z,78.96
2019-05-17T10:17:29.367Z,78.86
2019-05-17T10:20:05.099Z,78.92
2019-05-17T10:22:40.100Z,78.91
2019-05-17T10:25:16.120Z,78.85
2019-05-17T10:27:50.174Z,78.84
2019-05-17T10:30:23.520Z,78.79
2019-05-17T10:33:00.020Z,78.79
2019-05-17T10:35:33.899Z,78.82
2019-05-17T10:38:10.355Z,78.78
2019-05-17T10:40:43.904Z,78.79
2019-05-17T10:43:17.223Z,78.93
2019-05-17T10:45:51.587Z,78.88
2019-05-17T10:48:25.729Z,78.81
2019-05-17T10:51:00.282Z,78.81
2019-05-17T10:53:34.734Z,78.80
2019-05-17T10:56:09.944Z,78.83
2019-05-17T10:58:43.952Z,78.67
2019-05-17T11:01:20.070Z,78.74
2019-05-17T11:03:53.698Z,78.70
2019-05-17T11:06:27.585Z,78.70
2019-05-17T11:09:01.515Z,78.73
2019-05-17T11:11:35.407Z,78.60
2019-05-17T11:14:09.278Z,78.62
2019-05-17T11:16:43.458Z,78.66
2019-05-17T11:19:17.418Z,78.69
2019-05-17T11:21:51.236Z,78.68
2019-05-17T11:24:28.227Z,78.64
2019-05-17T11:27:02.163Z,78.70
2019-05-17T11:29:36.080Z,78.73
2019-05-17T11:32:10.313Z,78.68
2019-05-17T11:34:44.215Z,78.84
2019-05-17T11:37:18.215Z,78.69
2019-05-17T11:39:52.193Z,78.76
2019-05-17T11:42:26.238Z,78.83
2019-05-17T11:44:59.544Z,78.76
2019-05-17T11:47:33.479Z,78.79
2019-05-17T11:50:08.149Z,78.88
2019-05-17T11:52:42.052Z,78.84
2019-05-17T11:55:16.003Z,78.80
2019-05-17T11:57:50.160Z,78.80
2019-05-17T12:00:24.477Z,78.82
2019-05-17T12:02:58.351Z,78.74
2019-05-17T12:05:32.422Z,78.66
2019-05-17T12:08:08.506Z,78.77
2019-05-17T12:10:41.305Z,78.71
2019-05-17T12:13:15.296Z,78.80
2019-05-17T12:15:49.201Z,78.78
2019-05-17T12:18:23.373Z,78.79
2019-05-17T12:20:56.543Z,78.79
2019-05-17T12:23:30.598Z,78.83
2019-05-17T12:26:03.885Z,78.88
2019-05-17T12:28:38.991Z,78.83
2019-05-17T12:31:12.805Z,78.92
2019-05-17T12:33:46.853Z,78.94
2019-05-17T12:36:20.050Z,78.90
2019-05-17T12:38:54.047Z,78.93
2019-05-17T12:41:28.025Z,78.93
2019-05-17T12:44:02.057Z,78.91
2019-05-17T12:46:35.256Z,78.78
2019-05-17T12:49:09.329Z,78.64
2019-05-17T12:51:43.193Z,78.56
2019-05-17T12:54:17.362Z,78.55
2019-05-17T12:56:50.617Z,78.72
2019-05-17T12:59:25.081Z,78.75
2019-05-17T13:01:59.333Z,78.88
2019-05-17T13:04:33.530Z,78.87
2019-05-17T13:07:07.942Z,78.77
2019-05-17T13:09:41.830Z,78.61
2019-05-17T13:12:15.953Z,78.55
2019-05-17T13:14:49.170Z,78.60
2019-05-17T13:17:23.207Z,78.61
2019-05-17T13:19:56.570Z,78.79
2019-05-17T13:22:30.477Z,78.68
2019-05-17T13:25:06.354Z,78.54
2019-05-17T13:27:40.337Z,78.54
2019-05-17T13:30:14.725Z,78.58
2019-05-17T13:32:48.650Z,78.41
2019-05-17T13:35:23.036Z,78.41
2019-05-17T13:37:58.231Z,78.46
2019-05-17T13:40:39.292Z,78.39
2019-05-17T13:43:08.123Z,78.31
2019-05-17T13:45:44.780Z,78.46
2019-05-17T13:48:19.028Z,78.35
2019-05-17T13:50:53.141Z,78.46
2019-05-17T13:53:26.505Z,78.40
2019-05-17T13:56:00.722Z,78.52
2019-05-17T13:58:34.839Z,78.64
2019-05-17T14:01:09.290Z,78.48
2019-05-17T14:03:43.440Z,78.42
2019-05-17T14:06:18.984Z,78.49
2019-05-17T14:08:52.943Z,78.54
2019-05-17T14:11:26.888Z,78.56
2019-05-17T14:14:00.995Z,78.68
2019-05-17T14:16:34.720Z,78.75
2019-05-17T14:19:09.065Z,78.73
2019-05-17T14:21:44.142Z,78.84
2019-05-17T14:24:18.151Z,78.85
2019-05-17T14:26:52.408Z,78.85
2019-05-17T14:29:26.509Z,78.79
2019-05-17T14:32:01.047Z,78.75
2019-05-17T14:34:34.919Z,78.84
2019-05-17T14:37:08.939Z,78.94
2019-05-17T14:39:43.108Z,78.87
2019-05-17T14:42:17.002Z,78.90
2019-05-17T14:44:50.988Z,78.93
2019-05-17T14:47:24.896Z,78.81
2019-05-17T14:49:58.834Z,78.88
2019-05-17T14:52:32.664Z,79.04
2019-05-17T14:55:06.838Z,78.99
2019-05-17T14:57:43.036Z,79.13
2019-05-17T15:00:17.058Z,79.01
2019-05-17T15:02:50.956Z,79.08
2019-05-17T15:05:25.128Z,79.24
2019-05-17T15:07:58.442Z,79.64
2019-05-17T15:10:32.520Z,79.92
2019-05-17T15:13:05.895Z,80.04
2019-05-17T15:15:39.959Z,79.91
2019-05-17T15:18:12.989Z,80.13
2019-05-17T15:20:47.178Z,80.11
2019-05-17T15:23:21.440Z,80.18
2019-05-17T15:25:55.498Z,80.12
2019-05-17T15:28:28.852Z,80.19
2019-05-17T15:31:02.830Z,80.13
2019-05-17T15:33:36.809Z,80.14
2019-05-17T15:36:10.026Z,80.15
2019-05-17T15:38:43.818Z,80.13
2019-05-17T15:41:17.699Z,80.19
2019-05-17T15:43:51.717Z,80.14
2019-05-17T15:46:25.793Z,80.09
2019-05-17T15:48:59.064Z,79.96
2019-05-17T15:51:33.189Z,79.91
2019-05-17T15:54:07.596Z,79.96
2019-05-17T15:56:41.582Z,80.04
2019-05-17T15:59:15.415Z,80.12
2019-05-17T16:01:49.319Z,80.13
2019-05-17T16:04:23.575Z,80.15
2019-05-17T16:06:57.922Z,80.17
2019-05-17T16:09:31.933Z,80.17
2019-05-17T16:12:06.243Z,80.15
2019-05-17T16:14:40.278Z,80.13
2019-05-17T16:17:13.400Z,80.09
2019-05-17T16:19:47.279Z,80.14
2019-05-17T16:22:21.284Z,80.20
2019-05-17T16:24:54.520Z,80.21
2019-05-17T16:27:28.276Z,80.19
2019-05-17T16:30:04.642Z,80.19
2019-05-17T16:32:37.974Z,80.17
2019-05-17T16:35:12.251Z,80.16
2019-05-17T16:37:46.046Z,80.14
2019-05-17T16:40:20.170Z,80.15
2019-05-17T16:42:54.070Z,80.16
2019-05-17T16:45:28.046Z,80.19
2019-05-17T16:48:02.062Z,80.16
2019-05-17T16:50:38.096Z,80.16
2019-05-17T16:53:12.513Z,80.17
2019-05-17T16:55:46.846Z,80.27
2019-05-17T16:58:20.905Z,80.30
2019-05-17T17:00:55.326Z,80.32
2019-05-17T17:03:43.214Z,80.33
2019-05-17T17:06:05.263Z,80.34
2019-05-17T17:08:40.615Z,80.39
2019-05-17T17:11:14.676Z,80.42
2019-05-17T17:13:49.964Z,80.37
2019-05-17T17:16:23.992Z,80.42
2019-05-17T17:18:57.522Z,80.45
2019-05-17T17:21:31.616Z,80.35
2019-05-17T17:24:06.128Z,80.56
2019-05-17T17:26:40.442Z,80.71
2019-05-17T17:29:14.508Z,80.61
2019-05-17T17:31:47.568Z,80.54
2019-05-17T17:34:22.242Z,80.59
2019-05-17T17:36:56.533Z,80.68
2019-05-17T17:39:30.692Z,80.80
2019-05-17T17:42:03.857Z,80.69
2019-05-17T17:44:37.926Z,80.70
2019-05-17T17:47:11.388Z,80.79
2019-05-17T17:49:45.554Z,80.82
2019-05-17T17:52:19.586Z,80.88
2019-05-17T17:54:53.189Z,80.94
2019-05-17T17:57:27.729Z,80.90
2019-05-17T18:00:02.454Z,80.89
2019-05-17T18:02:37.744Z,80.85
2019-05-17T18:05:12.699Z,80.78
2019-05-17T18:07:46.696Z,80.80
2019-05-17T18:10:21.390Z,80.79
2019-05-17T18:12:55.657Z,80.83
2019-05-17T18:15:44.736Z,80.91
2019-05-17T18:18:19.077Z,80.84
2019-05-17T18:20:52.895Z,80.97
2019-05-17T18:23:27.373Z,80.87
2019-05-17T18:26:01.533Z,80.90
2019-05-17T18:28:35.069Z,80.89
2019-05-17T18:31:09.132Z,80.90
2019-05-17T18:33:43.687Z,80.91
2019-05-17T18:36:17.636Z,80.85
2019-05-17T18:38:54.271Z,80.89
2019-05-17T18:41:28.319Z,80.97
2019-05-17T18:44:01.918Z,80.99
2019-05-17T18:46:36.300Z,81.03
2019-05-17T18:49:10.360Z,81.05
2019-05-17T18:51:43.638Z,80.95
2019-05-17T18:54:19.642Z,80.96
2019-05-17T18:56:54.172Z,80.91
2019-05-17T18:59:28.449Z,80.88
2019-05-17T19:02:02.562Z,80.84
2019-05-17T19:04:35.710Z,80.83
2019-05-17T19:07:09.554Z,80.81
2019-05-17T19:09:43.488Z,80.84
2019-05-17T19:12:17.462Z,80.82
2019-05-17T19:14:51.482Z,80.85
2019-05-17T19:17:24.696Z,80.84
2019-05-17T19:19:58.636Z,80.87
2019-05-17T19:22:32.815Z,80.91
2019-05-17T19:25:08.510Z,80.89
2019-05-17T19:27:42.445Z,80.87
2019-05-17T19:30:17.298Z,80.86
2019-05-17T19:32:51.180Z,80.88
2019-05-17T19:35:25.178Z,80.86
2019-05-17T19:37:58.376Z,80.86
2019-05-17T19:40:32.298Z,80.87
2019-05-17T19:43:06.458Z,80.87
2019-05-17T19:45:39.604Z,80.79
2019-05-17T19:48:14.855Z,80.80
2019-05-17T19:50:48.790Z,80.83
2019-05-17T19:53:22.643Z,80.83
2019-05-17T19:55:57.402Z,80.81
2019-05-17T19:58:31.420Z,80.77
2019-05-17T20:01:05.608Z,80.75
2019-05-17T20:03:39.528Z,80.71
2019-05-17T20:06:13.520Z,80.69
2019-05-17T20:08:46.888Z,80.72
2019-05-17T20:11:33.599Z,80.79
2019-05-17T20:13:56.779Z,80.83
2019-05-17T20:16:29.926Z,80.72
2019-05-17T20:19:05.648Z,80.78
2019-05-17T20:21:40.496Z,80.84
2019-05-17T20:24:16.634Z,80.84
2019-05-17T20:26:50.682Z,80.83
2019-05-17T20:29:25.140Z,80.79
2019-05-17T20:31:59.296Z,80.77
2019-05-17T20:34:33.248Z,80.74
2019-05-17T20:37:09.863Z,80.82
2019-05-17T20:39:43.976Z,80.78
2019-05-17T20:42:17.481Z,80.74
2019-05-17T20:44:51.782Z,80.73
2019-05-17T20:47:27.466Z,80.82
2019-05-17T20:50:01.631Z,80.88
2019-05-17T20:52:35.219Z,80.89
2019-05-17T20:55:09.331Z,80.87
2019-05-17T20:57:43.562Z,80.88
2019-05-17T21:00:18.155Z,80.88
2019-05-17T21:02:52.330Z,80.86
2019-05-17T21:05:26.887Z,80.79
2019-05-17T21:08:01.008Z,80.79
2019-05-17T21:10:34.191Z,80.84
2019-05-17T21:13:08.328Z,80.78
2019-05-17T21:15:47.779Z,80.82
2019-05-17T21:18:17.598Z,80.88
2019-05-17T21:20:51.515Z,80.93
2019-05-17T21:23:26.298Z,80.91
2019-05-17T21:26:00.170Z,80.84
2019-05-17T21:28:34.441Z,80.77
2019-05-17T21:31:08.385Z,80.85
2019-05-17T21:33:42.812Z,80.91
2019-05-17T21:36:16.935Z,80.91
2019-05-17T21:38:50.380Z,80.81
2019-05-17T21:41:24.357Z,80.84
2019-05-17T21:43:58.624Z,80.92
2019-05-17T21:46:32.690Z,80.94
2019-05-17T21:49:05.873Z,80.93
2019-05-17T21:51:40.152Z,80.91
2019-05-17T21:54:14.019Z,80.95
2019-05-17T21:56:47.852Z,80.89
2019-05-17T21:59:21.685Z,80.96
2019-05-17T22:01:56.199Z,80.97
2019-05-17T22:04:30.286Z,80.91
2019-05-17T22:07:03.386Z,80.94
2019-05-17T22:09:37.262Z,80.96
2019-05-17T22:12:12.703Z,81.01
2019-05-17T22:14:46.551Z,80.95
2019-05-17T22:17:20.467Z,80.97
2019-05-17T22:19:55.171Z,80.99
2019-05-17T22:22:30.400Z,81.02
2019-05-17T22:25:05.490Z,81.00
2019-05-17T22:27:39.422Z,81.00
2019-05-17T22:30:13.424Z,80.99
2019-05-17T22:32:47.251Z,81.01
2019-05-17T22:35:22.234Z,80.99
2019-05-17T22:37:56.127Z,81.00
2019-05-17T22:40:30.084Z,81.00
2019-05-17T22:43:03.991Z,80.98
2019-05-17T22:45:37.880Z,81.00
2019-05-17T22:48:11.789Z,80.98
2019-05-17T22:50:45.685Z,81.01
2019-05-17T22:53:19.696Z,81.00
2019-05-17T22:55:53.829Z,81.02
2019-05-17T22:58:27.973Z,81.12
2019-05-17T23:01:01.110Z,81.17
2019-05-17T23:03:35.051Z,81.17
2019-05-17T23:06:09.197Z,81.26
2019-05-17T23:08:43.219Z,81.26
2019-05-17T23:11:16.272Z,81.27
2019-05-17T23:13:52.324Z,81.27
2019-05-17T23:16:26.215Z,81.26
2019-05-17T23:19:09.568Z,81.26
2019-05-17T23:21:43.470Z,81.25
2019-05-17T23:24:17.340Z,81.25
2019-05-17T23:26:51.289Z,81.25
2019-05-17T23:29:25.189Z,81.26
2019-05-17T23:31:59.130Z,81.30
2019-05-17T23:34:32.210Z,81.30
2019-05-17T23:37:06.102Z,81.31
2019-05-17T23:39:39.988Z,81.34
2019-05-17T23:42:13.823Z,81.32
2019-05-17T23:44:47.641Z,81.33
2019-05-17T23:47:21.522Z,81.37
2019-05-17T23:49:55.368Z,81.42
2019-05-17T23:52:29.257Z,81.45
2019-05-17T23:55:03.434Z,81.42
2019-05-17T23:57:37.500Z,81.43
